sensor_id;sensor_type;location;lat;lon;timestamp;P1;durP1;ratioP1;P2;durP2;ratioP2
3523;SDS011;1776;53.330;11.498;2023-06-14T00:02:03;5.73;;;2.60;;
3523;SDS011;1776;53.330;11.498;2023-06-14T00:04:28;6.63;;;3.00;;
3523;SDS011;1776;53.330;11.498;2023-06-14T00:06:54;6.80;;;3.17;;
3523;SDS011;1776;53.330;11.498;2023-06-14T00:09:21;6.50;;;3.10;;
3523;SDS011;1776;53.330;11.498;2023-06-14T00:11:47;5.13;;;3.07;;
3523;SDS011;1776;53.330;11.498;2023-06-14T00:14:12;5.10;;;3.23;;
3523;SDS011;1776;53.330;11.498;2023-06-14T00:16:37;3.40;;;2.77;;
3523;SDS011;1776;53.330;11.498;2023-06-14T00:19:03;3.20;;;2.53;;
3523;SDS011;1776;53.330;11.498;2023-06-14T00:21:30;5.23;;;3.23;;
3523;SDS011;1776;53.330;11.498;2023-06-14T00:23:56;6.63;;;3.00;;
3523;SDS011;1776;53.330;11.498;2023-06-14T00:26:22;5.70;;;3.07;;
3523;SDS011;1776;53.330;11.498;2023-06-14T00:28:47;4.40;;;3.17;;
3523;SDS011;1776;53.330;11.498;2023-06-14T00:31:12;6.83;;;3.40;;
3523;SDS011;1776;53.330;11.498;2023-06-14T00:33:38;4.17;;;3.50;;
3523;SDS011;1776;53.330;11.498;2023-06-14T00:36:03;8.97;;;3.37;;
3523;SDS011;1776;53.330;11.498;2023-06-14T00:38:29;5.63;;;3.33;;
3523;SDS011;1776;53.330;11.498;2023-06-14T00:40:54;6.30;;;2.77;;
3523;SDS011;1776;53.330;11.498;2023-06-14T00:43:19;11.20;;;3.40;;
3523;SDS011;1776;53.330;11.498;2023-06-14T00:45:44;6.30;;;2.60;;
3523;SDS011;1776;53.330;11.498;2023-06-14T00:48:10;3.43;;;2.60;;
3523;SDS011;1776;53.330;11.498;2023-06-14T00:50:36;4.63;;;3.03;;
3523;SDS011;1776;53.330;11.498;2023-06-14T00:53:03;5.63;;;3.33;;
3523;SDS011;1776;53.330;11.498;2023-06-14T00:55:29;10.67;;;2.97;;
3523;SDS011;1776;53.330;11.498;2023-06-14T00:57:55;5.67;;;3.10;;
3523;SDS011;1776;53.330;11.498;2023-06-14T01:00:21;5.33;;;3.07;;
3523;SDS011;1776;53.330;11.498;2023-06-14T01:02:46;5.50;;;4.10;;
3523;SDS011;1776;53.330;11.498;2023-06-14T01:05:12;5.13;;;3.50;;
3523;SDS011;1776;53.330;11.498;2023-06-14T01:07:55;7.53;;;3.23;;
3523;SDS011;1776;53.330;11.498;2023-06-14T01:10:36;6.17;;;3.67;;
3523;SDS011;1776;53.330;11.498;2023-06-14T01:13:27;4.70;;;2.23;;
3523;SDS011;1776;53.330;11.498;2023-06-14T01:15:57;4.30;;;2.80;;
3523;SDS011;1776;53.330;11.498;2023-06-14T01:18:23;13.07;;;4.10;;
3523;SDS011;1776;53.330;11.498;2023-06-14T01:20:50;5.50;;;2.87;;
3523;SDS011;1776;53.330;11.498;2023-06-14T01:23:20;4.30;;;3.70;;
3523;SDS011;1776;53.330;11.498;2023-06-14T01:25:46;5.43;;;3.47;;
3523;SDS011;1776;53.330;11.498;2023-06-14T01:28:12;5.23;;;3.20;;
3523;SDS011;1776;53.330;11.498;2023-06-14T01:30:41;4.93;;;3.40;;
3523;SDS011;1776;53.330;11.498;2023-06-14T01:33:10;3.73;;;3.20;;
3523;SDS011;1776;53.330;11.498;2023-06-14T01:35:44;8.07;;;3.63;;
3523;SDS011;1776;53.330;11.498;2023-06-14T01:38:10;7.43;;;3.57;;
3523;SDS011;1776;53.330;11.498;2023-06-14T01:40:38;6.10;;;3.30;;
3523;SDS011;1776;53.330;11.498;2023-06-14T01:43:04;4.43;;;3.03;;
3523;SDS011;1776;53.330;11.498;2023-06-14T01:45:30;4.70;;;3.57;;
3523;SDS011;1776;53.330;11.498;2023-06-14T01:47:56;5.20;;;3.47;;
3523;SDS011;1776;53.330;11.498;2023-06-14T01:50:22;4.93;;;3.13;;
3523;SDS011;1776;53.330;11.498;2023-06-14T01:52:47;6.03;;;4.30;;
3523;SDS011;1776;53.330;11.498;2023-06-14T01:55:12;5.50;;;4.07;;
3523;SDS011;1776;53.330;11.498;2023-06-14T01:57:38;3.80;;;3.30;;
3523;SDS011;1776;53.330;11.498;2023-06-14T02:00:04;7.17;;;3.37;;
3523;SDS011;1776;53.330;11.498;2023-06-14T02:02:33;5.50;;;3.47;;
3523;SDS011;1776;53.330;11.498;2023-06-14T02:04:58;4.93;;;3.60;;
3523;SDS011;1776;53.330;11.498;2023-06-14T02:07:23;6.10;;;3.33;;
3523;SDS011;1776;53.330;11.498;2023-06-14T02:09:49;4.67;;;3.20;;
3523;SDS011;1776;53.330;11.498;2023-06-14T02:12:14;6.30;;;3.30;;
3523;SDS011;1776;53.330;11.498;2023-06-14T02:14:39;4.93;;;3.13;;
3523;SDS011;1776;53.330;11.498;2023-06-14T02:17:05;9.57;;;4.93;;
3523;SDS011;1776;53.330;11.498;2023-06-14T02:19:31;6.60;;;3.63;;
3523;SDS011;1776;53.330;11.498;2023-06-14T02:21:56;5.10;;;3.60;;
3523;SDS011;1776;53.330;11.498;2023-06-14T02:24:22;9.27;;;4.20;;
3523;SDS011;1776;53.330;11.498;2023-06-14T02:26:48;8.23;;;4.17;;
3523;SDS011;1776;53.330;11.498;2023-06-14T02:29:13;6.70;;;4.20;;
3523;SDS011;1776;53.330;11.498;2023-06-14T02:31:39;5.57;;;3.37;;
3523;SDS011;1776;53.330;11.498;2023-06-14T02:34:05;4.37;;;3.37;;
3523;SDS011;1776;53.330;11.498;2023-06-14T02:36:33;5.43;;;3.50;;
3523;SDS011;1776;53.330;11.498;2023-06-14T02:38:59;6.17;;;4.50;;
3523;SDS011;1776;53.330;11.498;2023-06-14T02:41:24;8.20;;;4.20;;
3523;SDS011;1776;53.330;11.498;2023-06-14T02:43:50;6.57;;;3.70;;
3523;SDS011;1776;53.330;11.498;2023-06-14T02:46:16;5.30;;;3.40;;
3523;SDS011;1776;53.330;11.498;2023-06-14T02:48:41;7.80;;;4.47;;
3523;SDS011;1776;53.330;11.498;2023-06-14T02:51:06;3.50;;;3.20;;
3523;SDS011;1776;53.330;11.498;2023-06-14T02:53:33;7.50;;;3.83;;
3523;SDS011;1776;53.330;11.498;2023-06-14T02:55:58;6.03;;;3.47;;
3523;SDS011;1776;53.330;11.498;2023-06-14T02:58:24;7.43;;;4.00;;
3523;SDS011;1776;53.330;11.498;2023-06-14T03:00:50;6.40;;;3.70;;
3523;SDS011;1776;53.330;11.498;2023-06-14T03:03:17;15.53;;;4.40;;
3523;SDS011;1776;53.330;11.498;2023-06-14T03:05:43;7.40;;;4.33;;
3523;SDS011;1776;53.330;11.498;2023-06-14T03:08:12;5.63;;;3.50;;
3523;SDS011;1776;53.330;11.498;2023-06-14T03:10:47;6.30;;;3.30;;
3523;SDS011;1776;53.330;11.498;2023-06-14T03:13:14;8.13;;;4.50;;
3523;SDS011;1776;53.330;11.498;2023-06-14T03:15:40;5.40;;;4.07;;
3523;SDS011;1776;53.330;11.498;2023-06-14T03:18:09;5.67;;;4.10;;
3523;SDS011;1776;53.330;11.498;2023-06-14T03:20:35;9.37;;;4.40;;
3523;SDS011;1776;53.330;11.498;2023-06-14T03:23:01;7.53;;;5.20;;
3523;SDS011;1776;53.330;11.498;2023-06-14T03:25:27;6.57;;;4.20;;
3523;SDS011;1776;53.330;11.498;2023-06-14T03:27:54;10.70;;;4.80;;
3523;SDS011;1776;53.330;11.498;2023-06-14T03:30:20;9.07;;;3.67;;
3523;SDS011;1776;53.330;11.498;2023-06-14T03:32:45;9.40;;;4.90;;
3523;SDS011;1776;53.330;11.498;2023-06-14T03:35:11;5.13;;;3.57;;
3523;SDS011;1776;53.330;11.498;2023-06-14T03:37:41;7.77;;;4.40;;
3523;SDS011;1776;53.330;11.498;2023-06-14T03:40:07;14.63;;;4.97;;
3523;SDS011;1776;53.330;11.498;2023-06-14T03:42:33;9.50;;;4.17;;
3523;SDS011;1776;53.330;11.498;2023-06-14T03:44:58;6.90;;;3.87;;
3523;SDS011;1776;53.330;11.498;2023-06-14T03:47:23;9.23;;;4.50;;
3523;SDS011;1776;53.330;11.498;2023-06-14T03:49:48;7.87;;;3.80;;
3523;SDS011;1776;53.330;11.498;2023-06-14T03:52:14;6.77;;;4.23;;
3523;SDS011;1776;53.330;11.498;2023-06-14T03:54:41;8.57;;;4.97;;
3523;SDS011;1776;53.330;11.498;2023-06-14T03:57:08;8.60;;;4.70;;
3523;SDS011;1776;53.330;11.498;2023-06-14T03:59:33;5.73;;;3.80;;
3523;SDS011;1776;53.330;11.498;2023-06-14T04:01:58;6.43;;;4.20;;
3523;SDS011;1776;53.330;11.498;2023-06-14T04:04:24;6.40;;;3.87;;
3523;SDS011;1776;53.330;11.498;2023-06-14T04:06:53;8.63;;;5.53;;
3523;SDS011;1776;53.330;11.498;2023-06-14T04:09:19;6.30;;;4.37;;
3523;SDS011;1776;53.330;11.498;2023-06-14T04:11:44;8.07;;;4.77;;
3523;SDS011;1776;53.330;11.498;2023-06-14T04:14:09;6.43;;;3.93;;
3523;SDS011;1776;53.330;11.498;2023-06-14T04:16:35;6.13;;;4.23;;
3523;SDS011;1776;53.330;11.498;2023-06-14T04:19:00;12.90;;;4.70;;
3523;SDS011;1776;53.330;11.498;2023-06-14T04:21:25;7.10;;;4.30;;
3523;SDS011;1776;53.330;11.498;2023-06-14T04:23:52;7.93;;;4.47;;
3523;SDS011;1776;53.330;11.498;2023-06-14T04:26:20;8.43;;;4.43;;
3523;SDS011;1776;53.330;11.498;2023-06-14T04:28:46;6.60;;;3.90;;
3523;SDS011;1776;53.330;11.498;2023-06-14T04:31:12;6.00;;;4.30;;
3523;SDS011;1776;53.330;11.498;2023-06-14T04:33:37;7.57;;;4.60;;
3523;SDS011;1776;53.330;11.498;2023-06-14T04:36:09;6.87;;;4.40;;
3523;SDS011;1776;53.330;11.498;2023-06-14T04:38:37;6.67;;;4.30;;
3523;SDS011;1776;53.330;11.498;2023-06-14T04:41:02;6.03;;;4.20;;
3523;SDS011;1776;53.330;11.498;2023-06-14T04:43:28;6.20;;;4.50;;
3523;SDS011;1776;53.330;11.498;2023-06-14T04:45:53;10.80;;;4.60;;
3523;SDS011;1776;53.330;11.498;2023-06-14T04:48:19;6.20;;;4.13;;
3523;SDS011;1776;53.330;11.498;2023-06-14T04:50:46;6.47;;;4.40;;
3523;SDS011;1776;53.330;11.498;2023-06-14T04:53:11;8.40;;;4.77;;
3523;SDS011;1776;53.330;11.498;2023-06-14T04:55:36;9.83;;;4.50;;
3523;SDS011;1776;53.330;11.498;2023-06-14T04:58:02;7.60;;;4.40;;
3523;SDS011;1776;53.330;11.498;2023-06-14T05:00:28;6.27;;;4.30;;
3523;SDS011;1776;53.330;11.498;2023-06-14T05:02:53;5.47;;;3.97;;
3523;SDS011;1776;53.330;11.498;2023-06-14T05:05:18;7.00;;;4.60;;
3523;SDS011;1776;53.330;11.498;2023-06-14T05:07:44;6.00;;;4.37;;
3523;SDS011;1776;53.330;11.498;2023-06-14T05:10:10;7.07;;;4.70;;
3523;SDS011;1776;53.330;11.498;2023-06-14T05:12:35;7.60;;;4.33;;
3523;SDS011;1776;53.330;11.498;2023-06-14T05:15:01;5.40;;;4.20;;
3523;SDS011;1776;53.330;11.498;2023-06-14T05:17:27;6.50;;;5.20;;
3523;SDS011;1776;53.330;11.498;2023-06-14T05:19:53;7.10;;;4.33;;
3523;SDS011;1776;53.330;11.498;2023-06-14T05:22:18;6.20;;;4.07;;
3523;SDS011;1776;53.330;11.498;2023-06-14T05:24:43;9.33;;;5.00;;
3523;SDS011;1776;53.330;11.498;2023-06-14T05:27:09;7.33;;;5.00;;
3523;SDS011;1776;53.330;11.498;2023-06-14T05:29:34;8.27;;;4.93;;
3523;SDS011;1776;53.330;11.498;2023-06-14T05:31:59;6.80;;;5.20;;
3523;SDS011;1776;53.330;11.498;2023-06-14T05:34:24;6.70;;;4.33;;
3523;SDS011;1776;53.330;11.498;2023-06-14T05:36:50;6.63;;;4.27;;
3523;SDS011;1776;53.330;11.498;2023-06-14T05:39:16;10.10;;;4.27;;
3523;SDS011;1776;53.330;11.498;2023-06-14T05:41:42;6.03;;;4.17;;
3523;SDS011;1776;53.330;11.498;2023-06-14T05:44:07;8.90;;;4.53;;
3523;SDS011;1776;53.330;11.498;2023-06-14T05:46:33;6.03;;;3.90;;
3523;SDS011;1776;53.330;11.498;2023-06-14T05:48:59;4.63;;;3.83;;
3523;SDS011;1776;53.330;11.498;2023-06-14T05:51:24;7.33;;;4.83;;
3523;SDS011;1776;53.330;11.498;2023-06-14T05:53:50;5.40;;;4.40;;
3523;SDS011;1776;53.330;11.498;2023-06-14T05:56:16;5.10;;;4.30;;
3523;SDS011;1776;53.330;11.498;2023-06-14T05:58:42;5.87;;;4.30;;
3523;SDS011;1776;53.330;11.498;2023-06-14T06:01:08;7.43;;;4.63;;
3523;SDS011;1776;53.330;11.498;2023-06-14T06:03:33;4.37;;;3.83;;
3523;SDS011;1776;53.330;11.498;2023-06-14T06:05:59;4.90;;;4.37;;
3523;SDS011;1776;53.330;11.498;2023-06-14T06:08:26;5.93;;;4.10;;
3523;SDS011;1776;53.330;11.498;2023-06-14T06:10:51;3.90;;;3.50;;
3523;SDS011;1776;53.330;11.498;2023-06-14T06:13:17;5.17;;;4.17;;
3523;SDS011;1776;53.330;11.498;2023-06-14T06:15:42;5.50;;;4.70;;
3523;SDS011;1776;53.330;11.498;2023-06-14T06:18:07;4.80;;;3.67;;
3523;SDS011;1776;53.330;11.498;2023-06-14T06:20:33;6.93;;;3.67;;
3523;SDS011;1776;53.330;11.498;2023-06-14T06:22:58;4.83;;;3.63;;
3523;SDS011;1776;53.330;11.498;2023-06-14T06:25:24;4.37;;;4.00;;
3523;SDS011;1776;53.330;11.498;2023-06-14T06:27:51;3.80;;;3.30;;
3523;SDS011;1776;53.330;11.498;2023-06-14T06:30:17;7.00;;;3.23;;
3523;SDS011;1776;53.330;11.498;2023-06-14T06:32:43;3.60;;;3.30;;
3523;SDS011;1776;53.330;11.498;2023-06-14T06:35:08;6.83;;;3.70;;
3523;SDS011;1776;53.330;11.498;2023-06-14T06:37:35;7.63;;;4.37;;
3523;SDS011;1776;53.330;11.498;2023-06-14T06:40:01;6.73;;;3.60;;
3523;SDS011;1776;53.330;11.498;2023-06-14T06:42:26;6.00;;;3.60;;
3523;SDS011;1776;53.330;11.498;2023-06-14T06:44:52;5.47;;;4.20;;
3523;SDS011;1776;53.330;11.498;2023-06-14T06:47:17;5.10;;;4.50;;
3523;SDS011;1776;53.330;11.498;2023-06-14T06:49:42;8.90;;;4.83;;
3523;SDS011;1776;53.330;11.498;2023-06-14T06:52:07;6.93;;;3.87;;
3523;SDS011;1776;53.330;11.498;2023-06-14T06:54:33;5.97;;;4.50;;
3523;SDS011;1776;53.330;11.498;2023-06-14T06:56:59;7.87;;;4.90;;
3523;SDS011;1776;53.330;11.498;2023-06-14T06:59:25;5.47;;;4.97;;
3523;SDS011;1776;53.330;11.498;2023-06-14T07:01:51;10.03;;;5.20;;
3523;SDS011;1776;53.330;11.498;2023-06-14T07:04:16;6.50;;;5.23;;
3523;SDS011;1776;53.330;11.498;2023-06-14T07:06:42;6.10;;;4.60;;
3523;SDS011;1776;53.330;11.498;2023-06-14T07:09:07;6.97;;;4.70;;
3523;SDS011;1776;53.330;11.498;2023-06-14T07:11:37;5.83;;;4.63;;
3523;SDS011;1776;53.330;11.498;2023-06-14T07:14:02;7.63;;;4.67;;
3523;SDS011;1776;53.330;11.498;2023-06-14T07:16:27;5.40;;;4.23;;
3523;SDS011;1776;53.330;11.498;2023-06-14T07:18:52;6.17;;;4.57;;
3523;SDS011;1776;53.330;11.498;2023-06-14T07:21:18;6.27;;;3.80;;
3523;SDS011;1776;53.330;11.498;2023-06-14T07:23:43;5.30;;;3.43;;
3523;SDS011;1776;53.330;11.498;2023-06-14T07:26:08;4.93;;;3.70;;
3523;SDS011;1776;53.330;11.498;2023-06-14T07:28:34;5.37;;;3.60;;
3523;SDS011;1776;53.330;11.498;2023-06-14T07:30:59;7.17;;;3.80;;
3523;SDS011;1776;53.330;11.498;2023-06-14T07:33:25;7.50;;;3.40;;
3523;SDS011;1776;53.330;11.498;2023-06-14T07:35:50;5.97;;;3.87;;
3523;SDS011;1776;53.330;11.498;2023-06-14T07:38:17;8.73;;;3.80;;
3523;SDS011;1776;53.330;11.498;2023-06-14T07:40:42;5.13;;;4.23;;
3523;SDS011;1776;53.330;11.498;2023-06-14T07:43:08;8.80;;;4.00;;
3523;SDS011;1776;53.330;11.498;2023-06-14T07:45:33;4.20;;;3.60;;
3523;SDS011;1776;53.330;11.498;2023-06-14T07:47:58;8.10;;;4.60;;
3523;SDS011;1776;53.330;11.498;2023-06-14T07:50:23;7.70;;;3.93;;
3523;SDS011;1776;53.330;11.498;2023-06-14T07:52:49;4.43;;;3.73;;
3523;SDS011;1776;53.330;11.498;2023-06-14T07:55:14;8.30;;;4.67;;
3523;SDS011;1776;53.330;11.498;2023-06-14T07:57:40;6.03;;;4.00;;
3523;SDS011;1776;53.330;11.498;2023-06-14T08:00:05;5.23;;;3.07;;
3523;SDS011;1776;53.330;11.498;2023-06-14T08:02:31;5.80;;;3.17;;
3523;SDS011;1776;53.330;11.498;2023-06-14T08:04:57;8.10;;;3.90;;
3523;SDS011;1776;53.330;11.498;2023-06-14T08:07:23;9.53;;;4.10;;
3523;SDS011;1776;53.330;11.498;2023-06-14T08:09:48;9.57;;;3.90;;
3523;SDS011;1776;53.330;11.498;2023-06-14T08:12:14;7.37;;;3.57;;
3523;SDS011;1776;53.330;11.498;2023-06-14T08:14:39;5.40;;;3.43;;
3523;SDS011;1776;53.330;11.498;2023-06-14T08:17:05;6.10;;;4.00;;
3523;SDS011;1776;53.330;11.498;2023-06-14T08:19:30;4.77;;;3.47;;
3523;SDS011;1776;53.330;11.498;2023-06-14T08:21:56;3.53;;;3.23;;
3523;SDS011;1776;53.330;11.498;2023-06-14T08:24:21;3.40;;;2.87;;
3523;SDS011;1776;53.330;11.498;2023-06-14T08:26:51;4.33;;;3.10;;
3523;SDS011;1776;53.330;11.498;2023-06-14T08:29:19;6.37;;;3.13;;
3523;SDS011;1776;53.330;11.498;2023-06-14T08:31:45;3.90;;;3.20;;
3523;SDS011;1776;53.330;11.498;2023-06-14T08:34:11;4.73;;;3.27;;
3523;SDS011;1776;53.330;11.498;2023-06-14T08:36:36;6.40;;;3.70;;
3523;SDS011;1776;53.330;11.498;2023-06-14T08:39:01;11.43;;;4.80;;
3523;SDS011;1776;53.330;11.498;2023-06-14T08:41:27;5.03;;;3.10;;
3523;SDS011;1776;53.330;11.498;2023-06-14T08:43:54;5.27;;;3.20;;
3523;SDS011;1776;53.330;11.498;2023-06-14T08:46:20;3.80;;;2.87;;
3523;SDS011;1776;53.330;11.498;2023-06-14T08:48:48;4.77;;;3.40;;
3523;SDS011;1776;53.330;11.498;2023-06-14T08:51:15;4.40;;;3.87;;
3523;SDS011;1776;53.330;11.498;2023-06-14T08:53:43;5.40;;;3.73;;
3523;SDS011;1776;53.330;11.498;2023-06-14T08:56:09;5.80;;;3.80;;
3523;SDS011;1776;53.330;11.498;2023-06-14T08:58:39;3.50;;;3.20;;
3523;SDS011;1776;53.330;11.498;2023-06-14T09:01:09;5.77;;;3.57;;
3523;SDS011;1776;53.330;11.498;2023-06-14T09:03:39;9.47;;;4.10;;
3523;SDS011;1776;53.330;11.498;2023-06-14T09:06:05;6.53;;;2.90;;
3523;SDS011;1776;53.330;11.498;2023-06-14T09:08:33;3.80;;;3.40;;
3523;SDS011;1776;53.330;11.498;2023-06-14T09:11:01;6.00;;;3.17;;
3523;SDS011;1776;53.330;11.498;2023-06-14T09:13:27;5.20;;;3.50;;
3523;SDS011;1776;53.330;11.498;2023-06-14T09:15:52;7.30;;;4.00;;
3523;SDS011;1776;53.330;11.498;2023-06-14T09:18:18;9.30;;;3.50;;
3523;SDS011;1776;53.330;11.498;2023-06-14T09:20:45;4.17;;;3.70;;
3523;SDS011;1776;53.330;11.498;2023-06-14T09:23:12;7.03;;;3.37;;
3523;SDS011;1776;53.330;11.498;2023-06-14T09:25:45;4.47;;;3.20;;
3523;SDS011;1776;53.330;11.498;2023-06-14T09:28:10;3.53;;;3.20;;
3523;SDS011;1776;53.330;11.498;2023-06-14T09:30:36;6.90;;;4.07;;
3523;SDS011;1776;53.330;11.498;2023-06-14T09:33:02;5.23;;;2.80;;
3523;SDS011;1776;53.330;11.498;2023-06-14T09:35:27;4.30;;;3.60;;
3523;SDS011;1776;53.330;11.498;2023-06-14T09:37:56;5.10;;;3.47;;
3523;SDS011;1776;53.330;11.498;2023-06-14T09:40:21;3.67;;;3.30;;
3523;SDS011;1776;53.330;11.498;2023-06-14T09:42:46;4.37;;;2.93;;
3523;SDS011;1776;53.330;11.498;2023-06-14T09:45:12;5.83;;;3.37;;
3523;SDS011;1776;53.330;11.498;2023-06-14T09:47:38;5.43;;;2.93;;
3523;SDS011;1776;53.330;11.498;2023-06-14T09:50:05;4.13;;;3.10;;
3523;SDS011;1776;53.330;11.498;2023-06-14T09:52:31;3.93;;;2.97;;
3523;SDS011;1776;53.330;11.498;2023-06-14T09:54:57;4.53;;;3.00;;
3523;SDS011;1776;53.330;11.498;2023-06-14T09:57:24;6.90;;;3.10;;
3523;SDS011;1776;53.330;11.498;2023-06-14T09:59:52;5.23;;;3.57;;
3523;SDS011;1776;53.330;11.498;2023-06-14T10:02:26;5.60;;;3.37;;
3523;SDS011;1776;53.330;11.498;2023-06-14T10:05:03;5.17;;;3.50;;
3523;SDS011;1776;53.330;11.498;2023-06-14T10:10:18;5.17;;;2.90;;
3523;SDS011;1776;53.330;11.498;2023-06-14T10:12:43;5.07;;;3.07;;
3523;SDS011;1776;53.330;11.498;2023-06-14T10:15:09;5.07;;;3.00;;
3523;SDS011;1776;53.330;11.498;2023-06-14T10:17:46;8.00;;;3.20;;
3523;SDS011;1776;53.330;11.498;2023-06-14T10:20:18;7.27;;;3.27;;
3523;SDS011;1776;53.330;11.498;2023-06-14T10:22:51;3.40;;;2.70;;
3523;SDS011;1776;53.330;11.498;2023-06-14T10:25:27;4.73;;;2.77;;
3523;SDS011;1776;53.330;11.498;2023-06-14T10:28:15;4.23;;;3.00;;
3523;SDS011;1776;53.330;11.498;2023-06-14T10:33:27;2.80;;;2.60;;
3523;SDS011;1776;53.330;11.498;2023-06-14T10:36:06;2.93;;;2.70;;
3523;SDS011;1776;53.330;11.498;2023-06-14T10:38:36;8.93;;;3.30;;
3523;SDS011;1776;53.330;11.498;2023-06-14T10:41:02;10.77;;;2.60;;
3523;SDS011;1776;53.330;11.498;2023-06-14T10:43:28;5.77;;;2.87;;
3523;SDS011;1776;53.330;11.498;2023-06-14T10:48:41;3.57;;;3.17;;
3523;SDS011;1776;53.330;11.498;2023-06-14T10:51:15;3.40;;;3.07;;
3523;SDS011;1776;53.330;11.498;2023-06-14T10:53:45;3.40;;;2.83;;
3523;SDS011;1776;53.330;11.498;2023-06-14T10:56:27;13.23;;;3.83;;
3523;SDS011;1776;53.330;11.498;2023-06-14T10:58:57;3.30;;;3.00;;
3523;SDS011;1776;53.330;11.498;2023-06-14T11:01:34;6.83;;;3.33;;
3523;SDS011;1776;53.330;11.498;2023-06-14T11:04:09;3.60;;;3.17;;
3523;SDS011;1776;53.330;11.498;2023-06-14T11:06:45;4.03;;;2.87;;
3523;SDS011;1776;53.330;11.498;2023-06-14T11:09:27;4.33;;;2.90;;
3523;SDS011;1776;53.330;11.498;2023-06-14T11:12:01;5.30;;;2.73;;
3523;SDS011;1776;53.330;11.498;2023-06-14T11:14:29;5.60;;;3.07;;
3523;SDS011;1776;53.330;11.498;2023-06-14T11:16:55;4.50;;;2.70;;
3523;SDS011;1776;53.330;11.498;2023-06-14T11:19:21;7.33;;;3.77;;
3523;SDS011;1776;53.330;11.498;2023-06-14T11:21:47;7.13;;;3.20;;
3523;SDS011;1776;53.330;11.498;2023-06-14T11:24:16;3.40;;;3.00;;
3523;SDS011;1776;53.330;11.498;2023-06-14T11:26:42;3.30;;;2.87;;
3523;SDS011;1776;53.330;11.498;2023-06-14T11:29:07;4.63;;;3.17;;
3523;SDS011;1776;53.330;11.498;2023-06-14T11:31:32;3.37;;;2.97;;
3523;SDS011;1776;53.330;11.498;2023-06-14T11:33:58;5.27;;;3.57;;
3523;SDS011;1776;53.330;11.498;2023-06-14T11:36:28;9.13;;;3.60;;
3523;SDS011;1776;53.330;11.498;2023-06-14T11:38:58;4.20;;;2.80;;
3523;SDS011;1776;53.330;11.498;2023-06-14T11:41:36;3.93;;;3.33;;
3523;SDS011;1776;53.330;11.498;2023-06-14T11:44:03;5.23;;;3.40;;
3523;SDS011;1776;53.330;11.498;2023-06-14T11:46:29;6.03;;;3.23;;
3523;SDS011;1776;53.330;11.498;2023-06-14T11:48:55;3.80;;;2.93;;
3523;SDS011;1776;53.330;11.498;2023-06-14T11:51:20;4.97;;;3.80;;
3523;SDS011;1776;53.330;11.498;2023-06-14T11:53:46;3.93;;;3.50;;
3523;SDS011;1776;53.330;11.498;2023-06-14T11:56:12;4.53;;;3.03;;
3523;SDS011;1776;53.330;11.498;2023-06-14T11:58:37;7.87;;;2.90;;
3523;SDS011;1776;53.330;11.498;2023-06-14T12:01:03;4.33;;;3.17;;
3523;SDS011;1776;53.330;11.498;2023-06-14T12:03:29;5.73;;;3.50;;
3523;SDS011;1776;53.330;11.498;2023-06-14T12:06:07;3.53;;;2.73;;
3523;SDS011;1776;53.330;11.498;2023-06-14T12:08:34;8.83;;;3.50;;
3523;SDS011;1776;53.330;11.498;2023-06-14T12:11:04;5.63;;;3.07;;
3523;SDS011;1776;53.330;11.498;2023-06-14T12:13:29;3.80;;;3.10;;
3523;SDS011;1776;53.330;11.498;2023-06-14T12:15:55;4.17;;;3.37;;
3523;SDS011;1776;53.330;11.498;2023-06-14T12:18:31;3.40;;;3.10;;
3523;SDS011;1776;53.330;11.498;2023-06-14T12:20:58;3.97;;;3.60;;
3523;SDS011;1776;53.330;11.498;2023-06-14T12:23:27;3.70;;;3.33;;
3523;SDS011;1776;53.330;11.498;2023-06-14T12:26:03;7.47;;;3.13;;
3523;SDS011;1776;53.330;11.498;2023-06-14T12:28:31;5.73;;;3.10;;
3523;SDS011;1776;53.330;11.498;2023-06-14T12:30:56;6.10;;;3.37;;
3523;SDS011;1776;53.330;11.498;2023-06-14T12:33:23;5.67;;;3.20;;
3523;SDS011;1776;53.330;11.498;2023-06-14T12:35:49;5.23;;;3.27;;
3523;SDS011;1776;53.330;11.498;2023-06-14T12:38:15;3.30;;;3.00;;
3523;SDS011;1776;53.330;11.498;2023-06-14T12:40:41;4.83;;;2.53;;
3523;SDS011;1776;53.330;11.498;2023-06-14T12:43:07;5.37;;;3.37;;
3523;SDS011;1776;53.330;11.498;2023-06-14T12:45:32;7.30;;;3.10;;
3523;SDS011;1776;53.330;11.498;2023-06-14T12:47:58;6.67;;;3.20;;
3523;SDS011;1776;53.330;11.498;2023-06-14T12:50:23;5.70;;;3.70;;
3523;SDS011;1776;53.330;11.498;2023-06-14T12:52:48;4.23;;;3.23;;
3523;SDS011;1776;53.330;11.498;2023-06-14T12:55:13;7.50;;;3.10;;
3523;SDS011;1776;53.330;11.498;2023-06-14T12:57:39;3.93;;;3.33;;
3523;SDS011;1776;53.330;11.498;2023-06-14T13:00:05;3.30;;;3.00;;
3523;SDS011;1776;53.330;11.498;2023-06-14T13:02:32;3.23;;;2.93;;
3523;SDS011;1776;53.330;11.498;2023-06-14T13:04:58;4.33;;;3.60;;
3523;SDS011;1776;53.330;11.498;2023-06-14T13:07:24;6.20;;;3.17;;
3523;SDS011;1776;53.330;11.498;2023-06-14T13:09:49;3.50;;;3.20;;
3523;SDS011;1776;53.330;11.498;2023-06-14T13:12:14;3.30;;;2.90;;
3523;SDS011;1776;53.330;11.498;2023-06-14T13:14:40;4.50;;;3.47;;
3523;SDS011;1776;53.330;11.498;2023-06-14T13:17:07;4.07;;;3.17;;
3523;SDS011;1776;53.330;11.498;2023-06-14T13:19:33;3.90;;;3.10;;
3523;SDS011;1776;53.330;11.498;2023-06-14T13:21:58;5.37;;;3.27;;
3523;SDS011;1776;53.330;11.498;2023-06-14T13:24:23;6.63;;;3.60;;
3523;SDS011;1776;53.330;11.498;2023-06-14T13:26:49;6.47;;;3.03;;
3523;SDS011;1776;53.330;11.498;2023-06-14T13:29:14;6.50;;;3.17;;
3523;SDS011;1776;53.330;11.498;2023-06-14T13:31:39;5.80;;;3.33;;
3523;SDS011;1776;53.330;11.498;2023-06-14T13:34:05;7.57;;;3.70;;
3523;SDS011;1776;53.330;11.498;2023-06-14T13:36:30;4.73;;;3.00;;
3523;SDS011;1776;53.330;11.498;2023-06-14T13:38:56;5.73;;;3.47;;
3523;SDS011;1776;53.330;11.498;2023-06-14T13:41:23;3.33;;;2.63;;
3523;SDS011;1776;53.330;11.498;2023-06-14T13:43:49;3.87;;;3.30;;
3523;SDS011;1776;53.330;11.498;2023-06-14T13:46:14;5.03;;;3.10;;
3523;SDS011;1776;53.330;11.498;2023-06-14T13:48:39;6.20;;;3.33;;
3523;SDS011;1776;53.330;11.498;2023-06-14T13:51:05;9.10;;;3.50;;
3523;SDS011;1776;53.330;11.498;2023-06-14T13:53:30;10.63;;;3.97;;
3523;SDS011;1776;53.330;11.498;2023-06-14T13:55:56;5.20;;;3.40;;
3523;SDS011;1776;53.330;11.498;2023-06-14T13:58:21;4.00;;;3.10;;
3523;SDS011;1776;53.330;11.498;2023-06-14T14:00:48;6.40;;;3.03;;
3523;SDS011;1776;53.330;11.498;2023-06-14T14:03:13;4.47;;;3.07;;
3523;SDS011;1776;53.330;11.498;2023-06-14T14:05:38;5.80;;;3.10;;
3523;SDS011;1776;53.330;11.498;2023-06-14T14:08:04;6.07;;;3.60;;
3523;SDS011;1776;53.330;11.498;2023-06-14T14:10:29;3.27;;;2.97;;
3523;SDS011;1776;53.330;11.498;2023-06-14T14:12:54;4.93;;;3.13;;
3523;SDS011;1776;53.330;11.498;2023-06-14T14:15:20;4.43;;;3.10;;
3523;SDS011;1776;53.330;11.498;2023-06-14T14:17:45;7.77;;;3.27;;
3523;SDS011;1776;53.330;11.498;2023-06-14T14:20:12;7.33;;;3.50;;
3523;SDS011;1776;53.330;11.498;2023-06-14T14:22:40;6.77;;;3.47;;
3523;SDS011;1776;53.330;11.498;2023-06-14T14:25:06;2.73;;;2.53;;
3523;SDS011;1776;53.330;11.498;2023-06-14T14:27:31;3.67;;;2.83;;
3523;SDS011;1776;53.330;11.498;2023-06-14T14:29:56;4.33;;;2.97;;
3523;SDS011;1776;53.330;11.498;2023-06-14T14:32:22;3.07;;;2.80;;
3523;SDS011;1776;53.330;11.498;2023-06-14T14:34:47;6.93;;;3.70;;
3523;SDS011;1776;53.330;11.498;2023-06-14T14:37:12;5.63;;;2.97;;
3523;SDS011;1776;53.330;11.498;2023-06-14T14:39:39;4.07;;;3.57;;
3523;SDS011;1776;53.330;11.498;2023-06-14T14:42:05;6.63;;;3.53;;
3523;SDS011;1776;53.330;11.498;2023-06-14T14:44:32;8.03;;;3.43;;
3523;SDS011;1776;53.330;11.498;2023-06-14T14:46:57;6.53;;;3.50;;
3523;SDS011;1776;53.330;11.498;2023-06-14T14:49:23;4.33;;;3.27;;
3523;SDS011;1776;53.330;11.498;2023-06-14T14:51:48;4.87;;;3.10;;
3523;SDS011;1776;53.330;11.498;2023-06-14T14:54:13;5.67;;;2.90;;
3523;SDS011;1776;53.330;11.498;2023-06-14T14:56:38;5.87;;;3.10;;
3523;SDS011;1776;53.330;11.498;2023-06-14T14:59:04;4.17;;;3.63;;
3523;SDS011;1776;53.330;11.498;2023-06-14T15:01:30;8.50;;;3.57;;
3523;SDS011;1776;53.330;11.498;2023-06-14T15:03:55;5.00;;;2.90;;
3523;SDS011;1776;53.330;11.498;2023-06-14T15:06:20;4.03;;;3.13;;